Time;durP1;ratioP1;P1;durP2;ratioP2;P2;SDS_P1;SDS_P2;PMS_P1;PMS_P2;Temp;Humidity;BMP_temperature;BMP_pressure;BME280_temperature;BME280_humidity;BME280_pressure;Samples;Min_cycle;Max_cycle;Signal;HPM_P1;HPM_P2
2021/01/10 00:02:25;;;;;;;0.20;0.10;;;;;;;-2.04;100.00;101084.84;4991041;28;20453;-50
2021/01/10 00:04:53;;;;;;;0.20;0.10;;;;;;;-2.12;100.00;101075.03;4993310;28;20544;-50
2021/01/10 00:07:25;;;;;;;0.20;0.10;;;;;;;-2.26;100.00;101081.47;4992265;28;20986;-50
2021/01/10 00:09:52;;;;;;;0.20;0.10;;;;;;;-2.06;100.00;101078.66;4974099;28;20455;-50
2021/01/10 00:12:20;;;;;;;0.20;0.10;;;;;;;-2.09;100.00;101079.47;4986981;28;20534;-51
2021/01/10 00:14:47;;;;;;;0.20;0.10;;;;;;;-2.13;100.00;101073.25;4985459;28;20469;-51
2021/01/10 00:17:13;;;;;;;0.20;0.10;;;;;;;-2.11;100.00;101081.13;4992756;28;20485;-50
2021/01/10 00:19:42;;;;;;;0.20;0.10;;;;;;;-1.98;100.00;101079.84;4992412;28;20556;-50
2021/01/10 00:22:12;;;;;;;0.20;0.10;;;;;;;-2.00;100.00;101081.50;4993011;28;20450;-50
2021/01/10 00:24:39;;;;;;;0.20;0.10;;;;;;;-1.74;100.00;101074.59;4993417;28;20496;-50
2021/01/10 00:27:14;;;;;;;0.40;0.40;;;;;;;-1.89;100.00;101067.16;4993201;28;20512;-50
2021/01/10 00:29:43;;;;;;;0.20;0.10;;;;;;;-2.00;100.00;101069.38;4991941;28;20452;-50
2021/01/10 00:32:10;;;;;;;0.20;0.10;;;;;;;-2.11;100.00;101066.38;4993292;28;20449;-50
2021/01/10 00:34:37;;;;;;;1.27;1.27;;;;;;;-2.03;100.00;101073.59;4991474;28;21056;-50
2021/01/10 00:37:12;;;;;;;0.20;0.10;;;;;;;-2.16;100.00;101075.78;4992920;28;20495;-51
2021/01/10 00:39:38;;;;;;;0.20;0.10;;;;;;;-2.03;100.00;101073.59;4993085;28;21025;-50
2021/01/10 00:42:06;;;;;;;0.20;0.10;;;;;;;-2.01;100.00;101072.81;4983946;28;20529;-51
2021/01/10 00:44:32;;;;;;;0.20;0.10;;;;;;;-2.04;100.00;101071.81;4988251;28;20559;-51
2021/01/10 00:46:58;;;;;;;0.20;0.10;;;;;;;-2.01;100.00;101071.94;4993042;28;20446;-50
2021/01/10 00:49:25;;;;;;;0.20;0.10;;;;;;;-1.90;100.00;101081.00;4992718;28;20963;-51
2021/01/10 00:51:52;;;;;;;0.20;0.10;;;;;;;-2.20;100.00;101078.19;4993064;28;20507;-51
2021/01/10 00:54:18;;;;;;;0.20;0.10;;;;;;;-2.29;100.00;101075.28;4988996;28;20467;-50
2021/01/10 00:56:44;;;;;;;17.33;15.00;;;;;;;-2.32;100.00;101072.56;4982892;28;20544;-50
2021/01/10 00:59:10;;;;;;;0.20;0.10;;;;;;;-2.53;100.00;101070.94;4990622;28;20463;-51
2021/01/10 01:01:37;;;;;;;0.20;0.10;;;;;;;-2.27;100.00;101079.72;4983231;28;20462;-50
2021/01/10 01:04:03;;;;;;;0.20;0.10;;;;;;;-1.89;100.00;101095.81;4972236;28;20560;-50
2021/01/10 01:06:30;;;;;;;0.20;0.10;;;;;;;-1.84;100.00;101099.44;4992404;28;20957;-51
2021/01/10 01:08:56;;;;;;;0.20;0.10;;;;;;;-2.25;100.00;101096.25;4992578;28;20454;-50
2021/01/10 01:11:33;;;;;;;0.20;0.10;;;;;;;-2.42;100.00;101089.56;4992375;28;20874;-51
2021/01/10 01:14:01;;;;;;;0.30;0.20;;;;;;;-2.34;100.00;101088.09;5013510;23;20530;-81
2021/01/10 01:16:28;;;;;;;0.20;0.10;;;;;;;-2.47;100.00;101084.22;5050817;28;20491;-81
2021/01/10 01:18:54;;;;;;;0.30;0.30;;;;;;;-2.46;100.00;101101.59;5045117;28;20541;-81
2021/01/10 01:21:21;;;;;;;0.20;0.10;;;;;;;-2.67;100.00;101092.97;5042216;28;20462;-81
2021/01/10 01:23:49;;;;;;;0.20;0.10;;;;;;;-2.48;100.00;101100.63;5047158;28;20452;-81
2021/01/10 01:26:22;;;;;;;0.20;0.10;;;;;;;-2.44;100.00;101083.44;5046815;28;20832;-81
2021/01/10 01:28:49;;;;;;;0.20;0.10;;;;;;;-2.55;100.00;101087.34;5041660;28;20496;-80
2021/01/10 01:31:18;;;;;;;0.40;0.40;;;;;;;-2.62;100.00;101090.53;5042470;28;20456;-81
2021/01/10 01:33:45;;;;;;;0.20;0.10;;;;;;;-2.83;100.00;101088.03;5041414;28;20454;-81
2021/01/10 01:36:14;;;;;;;0.20;0.10;;;;;;;-2.89;100.00;101079.97;5048348;28;20493;-80
2021/01/10 01:38:42;;;;;;;0.20;0.20;;;;;;;-2.91;100.00;101066.91;5027654;28;20987;-81
2021/01/10 01:41:08;;;;;;;0.20;0.10;;;;;;;-2.69;100.00;101074.72;5041450;28;21029;-81
2021/01/10 01:43:39;;;;;;;0.20;0.10;;;;;;;-2.80;100.00;101069.94;5046217;28;20454;-81
2021/01/10 01:46:08;;;;;;;0.20;0.10;;;;;;;-2.31;100.00;101074.34;5045207;28;20456;-81
2021/01/10 01:48:41;;;;;;;0.20;0.10;;;;;;;-1.92;100.00;101078.34;5049861;28;20570;-81
2021/01/10 01:51:08;;;;;;;0.20;0.10;;;;;;;-2.10;100.00;101083.78;5054615;28;20885;-81
2021/01/10 01:53:34;;;;;;;0.20;0.10;;;;;;;-1.95;100.00;101078.22;5048017;28;20455;-81
2021/01/10 01:56:00;;;;;;;0.20;0.10;;;;;;;-2.39;100.00;101085.34;5043383;28;20548;-81
2021/01/10 01:58:27;;;;;;;0.20;0.10;;;;;;;-2.31;100.00;101090.84;5035472;28;20822;-81
2021/01/10 02:00:54;;;;;;;0.30;0.30;;;;;;;-2.40;100.00;101073.16;5041718;28;20439;-81
2021/01/10 02:03:29;;;;;;;0.20;0.10;;;;;;;-2.55;100.00;101090.84;5057065;28;20504;-80
2021/01/10 02:05:59;;;;;;;0.20;0.10;;;;;;;-2.74;100.00;101078.88;5045241;28;20446;-81
2021/01/10 02:08:32;;;;;;;0.20;0.10;;;;;;;-2.79;100.00;101098.59;5043339;28;20514;-81
2021/01/10 02:11:01;;;;;;;0.20;0.10;;;;;;;-2.71;100.00;101089.38;5049820;28;20448;-81
2021/01/10 02:13:31;;;;;;;0.20;0.10;;;;;;;-2.85;100.00;101080.16;5049175;28;20434;-81
2021/01/10 02:15:58;;;;;;;0.20;0.10;;;;;;;-2.87;100.00;101083.53;5039658;28;21014;-81
2021/01/10 02:18:25;;;;;;;0.20;0.10;;;;;;;-2.90;100.00;101073.88;5042629;28;20475;-81
2021/01/10 02:20:53;;;;;;;0.20;0.10;;;;;;;-2.78;100.00;101087.34;5047210;28;20458;-80
2021/01/10 02:23:21;;;;;;;0.20;0.10;;;;;;;-3.18;100.00;101076.25;5043776;28;20455;-81
2021/01/10 02:25:48;;;;;;;0.20;0.10;;;;;;;-3.10;100.00;101095.66;5048538;28;20448;-81
2021/01/10 02:28:20;;;;;;;0.20;0.10;;;;;;;-3.23;100.00;101096.88;5050177;28;20864;-81
2021/01/10 02:30:49;;;;;;;0.20;0.10;;;;;;;-3.22;100.00;101076.97;5047574;28;20453;-80
2021/01/10 02:33:34;;;;;;;0.20;0.10;;;;;;;-3.31;100.00;101100.88;5043149;28;20506;-81
2021/01/10 02:36:08;;;;;;;0.20;0.10;;;;;;;-3.21;100.00;101095.22;5041847;28;20538;-80
2021/01/10 02:39:05;;;;;;;0.20;0.10;;;;;;;-3.03;100.00;101097.66;5049344;28;20463;-80
2021/01/10 02:41:45;;;;;;;0.20;0.10;;;;;;;-3.16;100.00;101091.06;5049614;28;20478;-80
2021/01/10 02:44:29;;;;;;;0.20;0.10;;;;;;;-3.13;100.00;101095.53;5050468;28;20825;-80
2021/01/10 02:46:56;;;;;;;0.20;0.10;;;;;;;-3.34;100.00;101086.03;5047788;28;20438;-80
2021/01/10 02:49:22;;;;;;;0.20;0.10;;;;;;;-2.97;100.00;101094.41;5043025;28;20487;-81
2021/01/10 02:51:49;;;;;;;0.30;0.30;;;;;;;-2.93;100.00;101098.91;5046967;28;20458;-81
2021/01/10 02:54:18;;;;;;;0.20;0.10;;;;;;;-2.90;100.00;101102.50;5039996;28;20458;-80
2021/01/10 02:57:09;;;;;;;0.20;0.20;;;;;;;-3.13;100.00;101098.13;5046041;28;20483;-80
2021/01/10 02:59:42;;;;;;;0.20;0.10;;;;;;;-3.18;100.00;101094.44;5048290;28;20498;-80
2021/01/10 03:02:10;;;;;;;0.20;0.10;;;;;;;-3.46;100.00;101090.75;5039504;28;20533;-81
2021/01/10 03:04:37;;;;;;;0.20;0.10;;;;;;;-3.41;100.00;101091.84;5047068;28;20498;-80
2021/01/10 03:07:05;;;;;;;0.20;0.10;;;;;;;-3.60;100.00;101094.50;5050710;28;20455;-80
2021/01/10 03:09:32;;;;;;;0.20;0.10;;;;;;;-3.67;100.00;101088.16;5046394;28;20479;-80
2021/01/10 03:12:24;;;;;;;0.30;0.20;;;;;;;-3.74;100.00;101106.91;5048038;28;20444;-80
2021/01/10 03:14:53;;;;;;;0.20;0.10;;;;;;;-3.55;100.00;101102.50;5030414;28;20465;-80
2021/01/10 03:17:41;;;;;;;2.33;2.33;;;;;;;-3.47;100.00;101091.56;5043853;28;20495;-80
2021/01/10 03:20:18;;;;;;;0.20;0.10;;;;;;;-3.56;100.00;101093.81;5050870;28;20444;-80
2021/01/10 03:22:50;;;;;;;0.20;0.10;;;;;;;-3.67;100.00;101101.16;5048726;28;21210;-80
2021/01/10 03:25:22;;;;;;;0.30;0.20;;;;;;;-3.85;100.00;101105.56;5041797;28;20868;-80
2021/01/10 03:27:49;;;;;;;0.20;0.10;;;;;;;-3.89;100.00;101096.75;5043257;28;20464;-80
2021/01/10 03:30:17;;;;;;;0.20;0.10;;;;;;;-4.00;100.00;101104.91;5043600;28;20831;-80
2021/01/10 03:32:45;;;;;;;0.20;0.10;;;;;;;-3.98;100.00;101104.16;5045534;28;20872;-80
2021/01/10 03:35:15;;;;;;;0.20;0.10;;;;;;;-4.01;100.00;101097.94;5029289;28;20521;-80
2021/01/10 03:37:42;;;;;;;0.20;0.10;;;;;;;-4.04;100.00;101088.31;5041875;28;20527;-80
2021/01/10 03:40:10;;;;;;;0.20;0.10;;;;;;;-4.04;100.00;101098.72;5087882;22;20588;-47
2021/01/10 03:42:37;;;;;;;0.20;0.10;;;;;;;-4.18;100.00;101095.50;5071019;28;20480;-47
2021/01/10 03:45:05;;;;;;;0.20;0.10;;;;;;;-4.28;100.00;101095.03;5053229;28;20481;-47
2021/01/10 03:47:31;;;;;;;1.23;1.20;;;;;;;-4.18;100.00;101097.22;5053146;28;20498;-48
2021/01/10 03:49:58;;;;;;;0.20;0.10;;;;;;;-4.18;100.00;101098.13;5053030;28;20461;-48
2021/01/10 03:52:25;;;;;;;1.30;1.30;;;;;;;-4.32;100.00;101101.81;5037855;28;20490;-47
2021/01/10 03:54:51;;;;;;;0.20;0.10;;;;;;;-4.29;100.00;101096.75;5041246;28;20474;-47
2021/01/10 03:57:17;;;;;;;0.20;0.10;;;;;;;-4.35;100.00;101099.09;5053094;28;20498;-47
2021/01/10 03:59:43;;;;;;;0.20;0.10;;;;;;;-4.30;100.00;101094.97;5044695;28;20466;-47
2021/01/10 04:02:09;;;;;;;0.20;0.10;;;;;;;-4.30;100.00;101082.00;5051133;28;20928;-47
2021/01/10 04:04:37;;;;;;;0.20;0.10;;;;;;;-4.34;100.00;101089.59;5051940;28;20546;-47
2021/01/10 04:07:06;;;;;;;0.20;0.10;;;;;;;-4.35;100.00;101091.31;5052462;28;20442;-47
2021/01/10 04:09:32;;;;;;;0.20;0.10;;;;;;;-4.41;100.00;101091.03;5052633;28;20513;-47
2021/01/10 04:11:58;;;;;;;0.20;0.10;;;;;;;-4.25;100.00;101087.38;5038402;28;20876;-49
2021/01/10 04:14:24;;;;;;;0.20;0.10;;;;;;;-4.22;100.00;101088.44;5052806;28;20470;-49
2021/01/10 04:16:52;;;;;;;0.20;0.10;;;;;;;-4.21;100.00;101085.00;5038385;28;20495;-47
2021/01/10 04:19:19;;;;;;;0.20;0.10;;;;;;;-4.15;100.00;101089.56;5042341;28;20455;-48
2021/01/10 04:21:46;;;;;;;0.30;0.30;;;;;;;-4.15;100.00;101089.56;5046509;28;20454;-47
2021/01/10 04:24:12;;;;;;;0.20;0.10;;;;;;;-4.09;100.00;101092.44;5052364;28;20467;-47
2021/01/10 04:26:44;;;;;;;0.20;0.10;;;;;;;-4.26;100.00;101101.19;5045160;28;20460;-47
2021/01/10 04:29:11;;;;;;;0.20;0.10;;;;;;;-4.29;100.00;101085.50;5052306;28;20447;-49
2021/01/10 04:31:37;;;;;;;0.67;0.63;;;;;;;-4.34;100.00;101087.00;5052176;28;20458;-47
2021/01/10 04:34:03;;;;;;;0.20;0.10;;;;;;;-4.35;100.00;101096.50;5052027;28;20466;-47
2021/01/10 04:36:30;;;;;;;0.20;0.10;;;;;;;-4.34;100.00;101103.47;5052165;28;20549;-47
2021/01/10 04:38:57;;;;;;;0.20;0.10;;;;;;;-4.42;100.00;101102.22;5052309;28;20465;-47
2021/01/10 04:41:25;;;;;;;0.30;0.20;;;;;;;-4.47;100.00;101096.84;5049855;28;20439;-48
2021/01/10 04:43:53;;;;;;;0.20;0.10;;;;;;;-4.44;100.00;101097.78;5052235;28;20562;-48
2021/01/10 04:46:20;;;;;;;0.20;0.10;;;;;;;-4.53;100.00;101090.47;5044610;28;20518;-49
2021/01/10 04:48:49;;;;;;;0.20;0.10;;;;;;;-4.49;100.00;101095.88;5042160;28;20466;-48
2021/01/10 04:51:15;;;;;;;0.20;0.10;;;;;;;-4.58;100.00;101097.16;5052070;28;20447;-47
2021/01/10 04:53:45;;;;;;;0.20;0.10;;;;;;;-4.51;100.00;101097.53;5040517;28;20467;-47
2021/01/10 04:56:12;;;;;;;0.50;0.50;;;;;;;-4.54;100.00;101092.19;5051225;28;21081;-47
2021/01/10 04:58:42;;;;;;;0.20;0.10;;;;;;;-4.45;100.00;101094.31;5045220;28;20525;-48
2021/01/10 05:01:18;;;;;;;0.20;0.10;;;;;;;-4.42;100.00;101094.44;5026074;28;20525;-48
2021/01/10 05:03:45;;;;;;;0.20;0.10;;;;;;;-4.45;100.00;101094.31;5051876;28;20970;-48
2021/01/10 05:06:11;;;;;;;0.20;0.10;;;;;;;-4.25;100.00;101098.69;5048623;28;20450;-47
2021/01/10 05:08:39;;;;;;;0.20;0.10;;;;;;;-4.23;100.00;101101.34;5047150;28;20447;-47
2021/01/10 05:11:05;;;;;;;0.20;0.10;;;;;;;-4.13;100.00;101093.09;5049329;28;20451;-48
2021/01/10 05:13:31;;;;;;;0.20;0.10;;;;;;;-4.14;100.00;101093.03;5047180;28;20914;-47
2021/01/10 05:15:57;;;;;;;0.20;0.10;;;;;;;-4.13;100.00;101089.63;5053068;28;20966;-48
2021/01/10 05:18:24;;;;;;;0.20;0.10;;;;;;;-3.96;100.00;101088.66;5056168;28;20526;-47
2021/01/10 05:20:55;;;;;;;0.20;0.10;;;;;;;-3.81;100.00;101096.22;5056003;28;20454;-48
2021/01/10 05:23:26;;;;;;;0.20;0.10;;;;;;;-3.93;100.00;101091.38;5055409;28;20458;-52
2021/01/10 05:26:06;;;;;;;0.20;0.20;;;;;;;-4.00;100.00;101097.13;5055999;28;20952;-47
2021/01/10 05:28:34;;;;;;;0.20;0.10;;;;;;;-4.14;100.00;101096.53;5040735;28;20454;-47
2021/01/10 05:31:02;;;;;;;0.20;0.10;;;;;;;-4.11;100.00;101096.69;5055972;28;20877;-47
2021/01/10 05:33:28;;;;;;;1.90;1.80;;;;;;;-4.00;100.00;101090.22;5055629;28;20451;-48
2021/01/10 05:35:56;;;;;;;0.20;0.10;;;;;;;-3.98;100.00;101080.78;5055293;28;20503;-48
2021/01/10 05:38:29;;;;;;;0.20;0.10;;;;;;;-3.95;100.00;101083.53;5055472;28;20450;-47
2021/01/10 05:40:57;;;;;;;0.20;0.10;;;;;;;-3.99;100.00;101084.19;5054491;28;20946;-47
2021/01/10 05:43:28;;;;;;;0.20;0.10;;;;;;;-3.81;100.00;101086.72;5055652;28;20522;-47
2021/01/10 05:45:55;;;;;;;0.40;0.40;;;;;;;-3.81;100.00;101078.03;5051436;28;20530;-49
2021/01/10 05:48:22;;;;;;;0.20;0.10;;;;;;;-3.69;100.00;101086.34;5055467;28;20506;-48
2021/01/10 05:50:52;;;;;;;6.60;2.23;;;;;;;-3.70;100.00;101085.44;5055141;28;20474;-48
2021/01/10 05:53:23;;;;;;;0.20;0.20;;;;;;;-3.49;100.00;101084.53;5046610;28;20444;-48
2021/01/10 05:55:59;;;;;;;0.20;0.10;;;;;;;-3.17;100.00;101088.41;5023297;28;20467;-48
2021/01/10 05:58:30;;;;;;;0.20;0.10;;;;;;;-3.19;100.00;101092.69;5049944;28;20516;-49
2021/01/10 06:00:59;;;;;;;0.20;0.10;;;;;;;-3.32;100.00;101092.19;5043786;28;20462;-48
2021/01/10 06:03:31;;;;;;;0.20;0.20;;;;;;;-3.34;100.00;101091.25;5054924;28;20450;-50
2021/01/10 06:05:59;;;;;;;0.20;0.10;;;;;;;-3.40;100.00;101100.53;5055215;28;20443;-47
2021/01/10 06:08:33;;;;;;;0.20;0.10;;;;;;;-3.46;100.00;101090.75;5054866;28;20451;-48
2021/01/10 06:11:19;;;;;;;0.20;0.20;;;;;;;-3.51;100.00;101087.09;5028465;28;20516;-48
2021/01/10 06:14:03;;;;;;;0.20;0.10;;;;;;;-3.54;100.00;101093.88;5052089;28;20466;-47
2021/01/10 06:16:37;;;;;;;0.30;0.20;;;;;;;-3.42;100.00;101095.25;5046136;28;20494;-48
2021/01/10 06:19:08;;;;;;;0.20;0.10;;;;;;;-3.05;100.00;101091.50;5029876;28;20486;-48
2021/01/10 06:21:34;;;;;;;0.30;0.20;;;;;;;-3.11;100.00;101097.38;5054553;28;20442;-48
2021/01/10 06:24:04;;;;;;;0.20;0.13;;;;;;;-3.30;100.00;101111.31;5054519;28;20889;-49
2021/01/10 06:26:39;;;;;;;0.20;0.10;;;;;;;-3.31;100.00;101100.88;5054481;28;20502;-48
2021/01/10 06:29:07;;;;;;;1.90;1.80;;;;;;;-3.26;100.00;101101.97;5054152;28;20447;-47
2021/01/10 06:31:45;;;;;;;0.20;0.10;;;;;;;-3.25;100.00;101101.13;5054680;28;20458;-48
2021/01/10 06:34:12;;;;;;;0.20;0.10;;;;;;;-3.54;100.00;101107.75;5054190;28;20471;-48
2021/01/10 06:36:42;;;;;;;0.20;0.10;;;;;;;-3.27;100.00;101110.59;5029050;28;20493;-47
2021/01/10 06:39:16;;;;;;;0.20;0.10;;;;;;;-3.34;100.00;101104.25;5054595;28;20467;-49
2021/01/10 06:42:01;;;;;;;0.20;0.10;;;;;;;-3.29;100.00;101115.72;5029357;28;20453;-47
2021/01/10 06:44:32;;;;;;;0.20;0.10;;;;;;;-3.16;100.00;101116.19;5054694;28;20463;-47
2021/01/10 06:46:58;;;;;;;0.20;0.10;;;;;;;-3.03;100.00;101115.84;5054146;28;20451;-49
2021/01/10 06:49:24;;;;;;;0.20;0.10;;;;;;;-3.22;100.00;101118.56;5054114;28;20483;-48
2021/01/10 06:51:53;;;;;;;0.20;0.10;;;;;;;-3.38;100.00;101107.53;5054372;28;20455;-46
2021/01/10 06:54:19;;;;;;;0.40;0.40;;;;;;;-3.31;100.00;101109.56;5040335;28;20473;-47
2021/01/10 06:56:50;;;;;;;0.20;0.10;;;;;;;-3.34;100.00;101117.22;5032756;28;20552;-47
2021/01/10 06:59:26;;;;;;;0.20;0.10;;;;;;;-3.40;100.00;101111.81;5043941;28;21019;-47
2021/01/10 07:01:52;;;;;;;0.20;0.10;;;;;;;-3.33;100.00;101113.81;5054146;28;20450;-50
2021/01/10 07:04:36;;;;;;;0.20;0.10;;;;;;;-3.26;100.00;101109.75;5053681;28;20470;-47
2021/01/10 07:07:03;;;;;;;0.20;0.10;;;;;;;-3.39;100.00;101110.97;5043900;28;20496;-47
2021/01/10 07:09:53;;;;;;;0.20;0.10;;;;;;;-3.09;100.00;101105.22;5054195;28;20447;-47
2021/01/10 07:12:22;;;;;;;0.20;0.10;;;;;;;-3.22;100.00;101101.25;5045769;28;20451;-47
2021/01/10 07:14:49;;;;;;;0.53;0.53;;;;;;;-3.26;100.00;101107.16;5054538;28;20493;-49
2021/01/10 07:17:17;;;;;;;0.20;0.10;;;;;;;-3.27;100.00;101105.38;5053232;28;21053;-49
2021/01/10 07:19:46;;;;;;;0.20;0.10;;;;;;;-3.05;100.00;101110.59;5047054;28;20842;-49
2021/01/10 07:22:22;;;;;;;0.20;0.10;;;;;;;-3.15;100.00;101113.69;5026043;28;20459;-50
2021/01/10 07:24:48;;;;;;;0.20;0.10;;;;;;;-3.23;100.00;101115.06;5053125;28;21057;-49
2021/01/10 07:27:34;;;;;;;0.20;0.10;;;;;;;-3.30;100.00;101111.31;5053860;28;20445;-49
2021/01/10 07:30:24;;;;;;;0.20;0.10;;;;;;;-3.18;100.00;101113.53;5053722;28;20449;-49
2021/01/10 07:32:50;;;;;;;2.10;2.00;;;;;;;-3.15;100.00;101112.75;5053533;28;20500;-49
2021/01/10 07:35:17;;;;;;;0.30;0.20;;;;;;;-3.29;100.00;101120.91;5053643;28;20474;-49
2021/01/10 07:37:45;;;;;;;0.20;0.10;;;;;;;-3.33;100.00;101119.00;5052029;28;20490;-49
2021/01/10 07:40:11;;;;;;;0.20;0.10;;;;;;;-3.13;100.00;101116.34;5042045;28;20479;-49
2021/01/10 07:42:40;;;;;;;0.20;0.10;;;;;;;-2.96;100.00;101119.59;5048245;28;20458;-49
2021/01/10 07:45:20;;;;;;;0.20;0.10;;;;;;;-2.80;100.00;101114.16;5053146;28;20994;-49
2021/01/10 07:47:48;;;;;;;0.20;0.10;;;;;;;-2.92;100.00;101108.47;5053271;28;20525;-50
2021/01/10 07:50:18;;;;;;;0.20;0.10;;;;;;;-2.98;100.00;101111.72;5053365;28;20521;-48
2021/01/10 07:52:45;;;;;;;0.20;0.10;;;;;;;-3.01;100.00;101119.41;5048627;28;20494;-49
2021/01/10 07:55:20;;;;;;;1.60;1.60;;;;;;;-2.91;100.00;101129.31;5045351;28;20899;-50
2021/01/10 07:58:02;;;;;;;0.20;0.10;;;;;;;-2.82;100.00;101126.22;5055386;28;20482;-50
2021/01/10 08:00:33;;;;;;;0.20;0.10;;;;;;;-2.85;100.00;101116.59;5034482;28;20983;-50
2021/01/10 08:03:06;;;;;;;0.20;0.10;;;;;;;-2.65;100.00;101119.94;5056087;28;20450;-49
2021/01/10 08:05:39;;;;;;;0.20;0.10;;;;;;;-2.70;100.00;101117.16;5056283;28;20463;-53
2021/01/10 08:08:12;;;;;;;0.20;0.10;;;;;;;-2.77;100.00;101128.16;5054617;28;20447;-49
2021/01/10 08:10:46;;;;;;;0.20;0.10;;;;;;;-2.61;100.00;101134.81;5053241;28;20458;-51
2021/01/10 08:13:33;;;;;;;0.20;0.10;;;;;;;-2.32;100.00;101125.53;5036773;28;20485;-49
2021/01/10 08:16:07;;;;;;;0.20;0.10;;;;;;;-2.04;100.00;101130.00;5029193;28;20438;-50
2021/01/10 08:18:38;;;;;;;0.20;0.10;;;;;;;-2.25;100.00;101137.03;5052722;28;20474;-49
2021/01/10 08:21:15;;;;;;;0.20;0.10;;;;;;;-2.25;100.00;101131.81;5041199;28;20466;-49
2021/01/10 08:23:46;;;;;;;0.20;0.10;;;;;;;-2.22;100.00;101132.81;5052704;28;20466;-49
2021/01/10 08:26:16;;;;;;;0.20;0.10;;;;;;;-2.23;100.00;101137.97;5052602;28;20457;-49
2021/01/10 08:28:46;;;;;;;0.30;0.10;;;;;;;-2.32;100.00;101125.53;5052573;28;20453;-49
2021/01/10 08:31:14;;;;;;;0.20;0.10;;;;;;;-2.14;100.00;101139.19;5052546;28;20520;-49
2021/01/10 08:33:41;;;;;;;0.20;0.10;;;;;;;-2.02;100.00;101137.88;5050346;28;21007;-49
2021/01/10 08:36:16;;;;;;;0.20;0.10;;;;;;;-2.11;100.00;101128.88;5039535;28;20508;-49
2021/01/10 08:39:09;;;;;;;0.20;0.10;;;;;;;-2.04;100.00;101129.13;5015703;28;20516;-50
2021/01/10 08:41:47;;;;;;;0.20;0.10;;;;;;;-1.82;100.00;101127.31;5014612;28;20469;-50
2021/01/10 08:44:18;;;;;;;0.20;0.10;;;;;;;-1.86;100.00;101132.38;5026363;28;20499;-50
2021/01/10 08:46:48;;;;;;;0.20;0.10;;;;;;;-1.82;100.00;101149.88;5011674;28;20474;-50
2021/01/10 08:49:18;;;;;;;0.20;0.10;;;;;;;-1.82;100.00;101140.34;5015438;28;20453;-49
2021/01/10 08:51:48;;;;;;;0.20;0.10;;;;;;;-1.72;100.00;101144.16;5029224;28;20460;-50
2021/01/10 08:54:17;;;;;;;0.20;0.10;;;;;;;-1.67;100.00;101144.31;5039657;28;20466;-50
2021/01/10 08:56:49;;;;;;;0.20;0.10;;;;;;;-1.54;100.00;101147.38;5056566;28;20835;-49
2021/01/10 08:59:18;;;;;;;0.20;0.10;;;;;;;-1.35;100.00;101153.22;5037949;28;20987;-50
2021/01/10 09:01:44;;;;;;;0.20;0.10;;;;;;;-1.39;100.00;101151.34;5056820;28;20447;-49
2021/01/10 09:04:12;;;;;;;0.20;0.10;;;;;;;-1.34;100.00;101152.41;5056095;28;20474;-50
2021/01/10 09:06:54;;;;;;;0.20;0.10;;;;;;;-1.15;100.00;101157.38;5056294;28;20508;-50
2021/01/10 09:09:32;;;;;;;0.20;0.10;;;;;;;-1.27;100.00;101155.25;5031961;28;20442;-49
2021/01/10 09:12:13;;;;;;;0.20;0.10;;;;;;;-1.14;100.00;101159.13;5048448;28;20932;-50
2021/01/10 09:14:48;;;;;;;0.40;0.40;;;;;;;-0.96;100.00;101162.34;5056270;28;20893;-49
2021/01/10 09:17:19;;;;;;;0.20;0.10;;;;;;;-0.71;100.00;101173.53;5054516;28;20490;-49
2021/01/10 09:19:51;;;;;;;0.20;0.10;;;;;;;-0.83;100.00;101181.88;5046991;28;20455;-50
2021/01/10 09:22:18;;;;;;;0.20;0.10;;;;;;;-0.63;100.00;101172.06;5056801;28;20446;-50
2021/01/10 09:24:44;;;;;;;0.20;0.10;;;;;;;-0.87;100.00;101172.19;5049632;28;20992;-49
2021/01/10 09:27:15;;;;;;;0.20;0.10;;;;;;;-0.94;100.00;101176.34;5049834;28;20929;-51
2021/01/10 09:29:42;;;;;;;0.20;0.10;;;;;;;-0.72;100.00;101172.66;5051825;28;20473;-50
2021/01/10 09:32:22;;;;;;;0.20;0.10;;;;;;;-0.77;100.00;101174.25;5056722;28;20451;-50
2021/01/10 09:34:57;;;;;;;0.20;0.10;;;;;;;-0.93;100.00;101170.28;5056712;28;20462;-49
2021/01/10 09:37:32;;;;;;;0.20;0.10;;;;;;;-0.83;100.00;101167.94;5058198;28;20482;-49
2021/01/10 09:40:07;;;;;;;1.10;1.10;;;;;;;-0.64;100.00;101172.91;5030828;28;20478;-50
2021/01/10 09:42:42;;;;;;;0.20;0.10;;;;;;;-0.40;100.00;101175.38;5054467;28;20454;-49
2021/01/10 09:45:09;;;;;;;0.20;0.10;;;;;;;-0.60;100.00;101180.00;5055205;28;20466;-50
2021/01/10 09:47:36;;;;;;;0.20;0.10;;;;;;;-0.30;100.00;101175.69;5045615;28;20957;-49
2021/01/10 09:50:30;;;;;;;0.20;0.10;;;;;;;-0.48;100.00;101172.53;5055045;28;20451;-51
2021/01/10 09:52:58;;;;;;;0.20;0.10;;;;;;;-0.19;100.00;101175.13;5036276;28;20468;-50
2021/01/10 09:55:25;;;;;;;0.20;0.10;;;;;;;-0.16;100.00;101175.19;5047834;28;21041;-50
2021/01/10 09:57:55;;;;;;;0.20;0.10;;;;;;;-0.17;100.00;101170.81;5054425;28;20486;-51
2021/01/10 10:00:22;;;;;;;3.87;3.50;;;;;;;-0.09;100.00;101167.59;5048462;28;20446;-50
2021/01/10 10:02:48;;;;;;;0.97;0.97;;;;;;;0.03;100.00;101164.44;5055388;28;20450;-49
2021/01/10 10:05:18;;;;;;;0.20;0.10;;;;;;;0.11;100.00;101159.41;5055091;28;20470;-50
2021/01/10 10:07:59;;;;;;;0.20;0.10;;;;;;;0.17;100.00;101163.09;5054999;28;20501;-50
2021/01/10 10:10:27;;;;;;;2.60;1.03;;;;;;;0.04;100.00;101160.09;5029420;28;20464;-50
2021/01/10 10:13:01;;;;;;;0.20;0.10;;;;;;;0.33;100.00;101166.13;5046676;28;20924;-51
2021/01/10 10:15:40;;;;;;;0.20;0.10;;;;;;;0.11;100.00;101165.53;5055051;28;20595;-50
2021/01/10 10:18:07;;;;;;;0.20;0.10;;;;;;;-0.06;100.00;101157.22;5054899;28;20866;-50
2021/01/10 10:20:34;;;;;;;0.20;0.10;;;;;;;0.05;100.00;101157.53;5041482;28;20458;-50
2021/01/10 10:23:13;;;;;;;1.23;1.23;;;;;;;0.11;100.00;101154.19;5054660;28;20504;-49
2021/01/10 10:25:40;;;;;;;0.30;0.20;;;;;;;0.22;100.00;101151.03;5029411;28;20454;-50
2021/01/10 10:28:07;;;;;;;0.20;0.10;;;;;;;0.06;100.00;101153.19;5054206;28;20494;-50
2021/01/10 10:30:35;;;;;;;0.30;0.20;;;;;;;0.07;100.00;101149.72;5054943;28;20871;-50
2021/01/10 10:33:02;;;;;;;0.20;0.10;;;;;;;0.31;100.00;101147.78;5054850;28;20532;-50
2021/01/10 10:35:29;;;;;;;0.20;0.20;;;;;;;0.36;100.00;101153.13;5054539;28;20882;-50
2021/01/10 10:37:55;;;;;;;0.20;0.10;;;;;;;0.54;100.00;101140.53;5053180;28;20544;-50
2021/01/10 10:40:21;;;;;;;0.20;0.10;;;;;;;0.27;100.00;101144.22;5054231;28;20458;-50
2021/01/10 10:42:48;;;;;;;0.20;0.10;;;;;;;0.36;100.00;101137.44;5052109;28;20458;-50
2021/01/10 10:45:15;;;;;;;0.20;0.10;;;;;;;0.33;100.00;101134.75;5054220;28;20470;-50
2021/01/10 10:47:41;;;;;;;0.20;0.10;;;;;;;0.28;100.00;101129.41;5055734;28;20858;-51
2021/01/10 10:50:10;;;;;;;0.20;0.10;;;;;;;0.24;100.00;101132.78;5054469;28;20485;-50
2021/01/10 10:52:36;;;;;;;0.20;0.10;;;;;;;0.66;100.00;101135.59;5051434;28;20447;-51
2021/01/10 10:55:04;;;;;;;0.20;0.13;;;;;;;0.51;100.00;101128.25;5044113;28;20536;-50
2021/01/10 10:57:30;;;;;;;0.30;0.20;;;;;;;0.56;100.00;101133.63;5039704;28;20490;-50
2021/01/10 10:59:56;;;;;;;0.77;0.77;;;;;;;0.80;100.00;101131.59;5040315;28;20459;-50
2021/01/10 11:02:23;;;;;;;0.20;0.10;;;;;;;0.88;100.00;101122.22;5054201;28;20458;-50
2021/01/10 11:04:49;;;;;;;0.20;0.10;;;;;;;0.79;100.00;101121.09;5054119;28;20582;-50
2021/01/10 11:07:16;;;;;;;0.20;0.10;;;;;;;0.86;100.00;101120.41;5053959;28;20446;-50
2021/01/10 11:09:43;;;;;;;0.57;0.57;;;;;;;1.32;100.00;101117.13;5054194;28;20513;-50
2021/01/10 11:12:11;;;;;;;0.20;0.10;;;;;;;1.39;100.00;101111.19;5046712;28;20451;-51
2021/01/10 11:14:37;;;;;;;0.30;0.20;;;;;;;1.17;100.00;101108.91;5053840;28;20479;-50
2021/01/10 11:17:08;;;;;;;0.27;0.13;;;;;;;1.06;100.00;101103.44;5053992;28;20921;-50
2021/01/10 11:19:34;;;;;;;0.20;0.10;;;;;;;1.46;100.00;101110.44;5053749;28;20478;-51
2021/01/10 11:22:03;;;;;;;0.20;0.10;;;;;;;1.26;100.00;101113.50;5054121;28;20451;-50
2021/01/10 11:24:30;;;;;;;1.43;0.87;;;;;;;1.32;100.00;101108.38;5053989;28;20493;-50
2021/01/10 11:26:57;;;;;;;0.30;0.20;;;;;;;1.39;100.00;101110.28;5054310;28;20442;-50
2021/01/10 11:29:23;;;;;;;0.20;0.10;;;;;;;1.38;100.00;101109.41;5053919;28;20488;-50
2021/01/10 11:31:50;;;;;;;0.20;0.10;;;;;;;1.44;100.00;101104.28;5053809;28;20450;-50
2021/01/10 11:34:16;;;;;;;2.60;1.80;;;;;;;1.96;99.17;101102.75;5053480;28;20467;-51